Time;durP1;ratioP1;P1;durP2;ratioP2;P2;SDS_P1;SDS_P2;PMS_P1;PMS_P2;Temp;Humidity;BMP_temperature;BMP_pressure;BME280_temperature;BME280_humidity;BME280_pressure;Samples;Min_cycle;Max_cycle;Signal;HPM_P1;HPM_P2
2022/08/19 00:01:12;;;;;;;15.20;13.73;;;;;;;18.57;87.77;101129.06;5105260;28;20353;-88
2022/08/19 00:03:37;;;;;;;17.40;15.57;;;;;;;18.56;87.63;101127.31;5104217;28;20110;-87
2022/08/19 00:06:03;;;;;;;16.98;15.23;;;;;;;18.50;88.12;101119.75;5103029;28;20058;-88
2022/08/19 00:08:28;;;;;;;17.52;15.57;;;;;;;18.56;88.20;101136.31;5106373;28;20082;-88
2022/08/19 00:10:53;;;;;;;16.40;14.63;;;;;;;18.53;88.13;101141.94;5107093;28;20041;-89
2022/08/19 00:13:19;;;;;;;16.52;14.77;;;;;;;18.48;88.21;101137.88;5098128;28;20042;-89
2022/08/19 00:15:44;;;;;;;16.65;14.85;;;;;;;18.47;88.37;101133.47;5094199;28;20312;-88
2022/08/19 00:18:10;;;;;;;17.98;15.30;;;;;;;18.40;88.13;101133.97;5092502;28;20480;-88
2022/08/19 00:20:35;;;;;;;18.20;15.98;;;;;;;18.41;88.96;101140.19;5102805;28;20109;-89
2022/08/19 00:23:00;;;;;;;18.00;15.90;;;;;;;18.32;89.08;101138.25;5093060;28;20032;-88
2022/08/19 00:25:25;;;;;;;18.55;16.25;;;;;;;18.29;88.87;101133.09;5090605;28;20103;-89
2022/08/19 00:27:51;;;;;;;20.65;18.50;;;;;;;18.28;89.47;101128.69;5093727;28;20024;-88
2022/08/19 00:30:16;;;;;;;20.95;18.75;;;;;;;18.30;89.76;101143.72;5107097;28;20019;-88
2022/08/19 00:32:42;;;;;;;20.40;18.02;;;;;;;18.28;90.02;101151.09;5101016;28;20020;-88
2022/08/19 00:35:09;;;;;;;24.88;19.63;;;;;;;18.25;90.47;101156.72;5104635;28;20020;-88
2022/08/19 00:37:34;;;;;;;23.02;20.50;;;;;;;18.20;91.01;101153.53;5094764;28;20076;-89
2022/08/19 00:40:02;;;;;;;23.13;20.63;;;;;;;18.20;90.88;101158.91;5097662;28;20099;-87
2022/08/19 00:42:28;;;;;;;23.33;20.83;;;;;;;18.14;91.61;101145.91;5101040;28;20023;-89
2022/08/19 00:44:53;;;;;;;24.63;21.25;;;;;;;18.17;91.53;101145.66;5090853;28;20035;-88
2022/08/19 00:47:19;;;;;;;24.73;22.13;;;;;;;18.16;90.77;101141.28;5107718;28;20049;-88
2022/08/19 00:49:51;;;;;;;23.70;21.20;;;;;;;18.14;91.19;101148.59;5103787;28;20576;-87
2022/08/19 00:52:38;;;;;;;24.80;21.45;;;;;;;18.10;90.27;101137.22;5108535;28;20047;-87
2022/08/19 00:55:08;;;;;;;23.38;20.63;;;;;;;18.06;91.38;101140.28;5095134;28;20024;-87
2022/08/19 00:57:38;;;;;;;27.52;23.40;;;;;;;18.04;91.91;101151.16;5113929;28;20031;-86
2022/08/19 01:00:09;;;;;;;27.75;24.17;;;;;;;18.01;92.69;101153.22;5104770;28;20032;-88
2022/08/19 01:02:34;;;;;;;30.88;24.10;;;;;;;18.00;92.71;101148.81;5101139;28;20081;-88
2022/08/19 01:05:04;;;;;;;28.73;23.30;;;;;;;17.96;93.27;101152.72;5113639;28;20438;-88
2022/08/19 01:07:29;;;;;;;33.97;26.10;;;;;;;17.86;93.46;101139.13;5115784;28;20035;-88
2022/08/19 01:09:55;;;;;;;32.00;26.00;;;;;;;17.89;93.92;101147.81;5113398;28;20395;-86
2022/08/19 01:12:21;;;;;;;33.05;26.23;;;;;;;17.84;94.38;101141.91;5122021;28;20012;-88
2022/08/19 01:14:47;;;;;;;33.17;26.98;;;;;;;17.84;94.92;101141.91;5116646;28;20039;-88
2022/08/19 01:17:14;;;;;;;36.03;27.50;;;;;;;17.84;94.75;101143.75;5115173;28;20054;-88
2022/08/19 01:19:42;;;;;;;34.95;28.20;;;;;;;17.77;94.88;101132.59;5105418;28;20039;-90
2022/08/19 01:22:14;;;;;;;32.72;26.05;;;;;;;17.77;95.38;101132.59;5116281;28;20011;-87
2022/08/19 01:24:40;;;;;;;31.40;26.70;;;;;;;17.74;95.20;101135.53;5103218;28;20028;-89
2022/08/19 01:27:07;;;;;;;33.88;27.35;;;;;;;17.74;94.97;101124.75;5103074;28;20032;-88
2022/08/19 01:29:32;;;;;;;35.40;27.17;;;;;;;17.76;95.25;101146.16;5104551;28;20030;-88
2022/08/19 01:31:59;;;;;;;34.47;27.25;;;;;;;17.69;95.28;101137.69;5098959;28;20031;-87
2022/08/19 01:34:24;;;;;;;30.30;26.25;;;;;;;17.65;95.79;101142.44;5098919;28;20027;-87
2022/08/19 01:36:49;;;;;;;32.20;26.95;;;;;;;17.65;95.19;101142.44;5106439;28;20103;-88
2022/08/19 01:39:20;;;;;;;34.03;27.10;;;;;;;17.68;96.03;101152.97;5103433;28;20119;-88
2022/08/19 01:41:46;;;;;;;34.17;26.55;;;;;;;17.59;95.87;101140.19;5101129;28;20533;-87
2022/08/19 01:44:12;;;;;;;33.63;26.08;;;;;;;17.65;96.25;101158.59;5097818;28;20024;-87
2022/08/19 01:46:37;;;;;;;32.30;27.17;;;;;;;17.61;96.34;101145.47;5101725;28;20491;-87
2022/08/19 01:49:04;;;;;;;31.38;26.48;;;;;;;17.64;95.91;101153.31;5112376;28;20511;-88
2022/08/19 01:51:30;;;;;;;30.05;25.52;;;;;;;17.61;96.14;101150.88;5105301;28;20059;-87
2022/08/19 01:53:56;;;;;;;31.45;25.90;;;;;;;17.56;96.88;101144.97;5099023;28;20480;-87
2022/08/19 01:56:22;;;;;;;37.40;26.70;;;;;;;17.62;96.82;101156.13;5092142;28;20593;-88
2022/08/19 01:59:13;;;;;;;32.53;26.45;;;;;;;17.64;96.11;101161.38;5111162;28;20024;-87
2022/08/19 02:01:38;;;;;;;32.45;26.13;;;;;;;17.63;96.61;101160.53;5105629;28;20119;-87
2022/08/19 02:04:05;;;;;;;32.10;24.90;;;;;;;17.63;96.42;101165.91;5105661;28;20596;-88
2022/08/19 02:06:31;;;;;;;31.10;25.80;;;;;;;17.62;96.50;101163.34;5100591;28;20003;-88
2022/08/19 02:08:56;;;;;;;32.00;25.38;;;;;;;17.59;96.50;101163.56;5126033;28;20031;-87
2022/08/19 02:11:26;;;;;;;31.52;25.70;;;;;;;17.57;96.44;101163.69;5125046;28;20499;-87
2022/08/19 02:13:52;;;;;;;30.90;24.95;;;;;;;17.64;96.59;101180.22;5124414;28;20027;-88
2022/08/19 02:16:18;;;;;;;30.20;25.50;;;;;;;17.38;96.35;101136.44;5130437;28;20044;-87
2022/08/19 02:18:43;;;;;;;29.65;25.25;;;;;;;17.58;96.57;101167.25;5122100;28;20046;-88
2022/08/19 02:21:10;;;;;;;34.08;26.80;;;;;;;17.52;96.25;101165.88;5119832;28;20055;-88
2022/08/19 02:23:35;;;;;;;32.33;25.50;;;;;;;17.50;96.30;101164.25;5118114;28;20036;-87
2022/08/19 02:26:00;;;;;;;30.50;25.23;;;;;;;17.41;95.67;101161.28;5120880;28;20142;-87
2022/08/19 02:28:26;;;;;;;32.65;26.15;;;;;;;17.36;96.44;101168.84;5121990;28;20510;-87
2022/08/19 02:30:51;;;;;;;35.97;26.23;;;;;;;17.32;96.92;101172.72;5108570;28;20027;-88
2022/08/19 02:33:16;;;;;;;30.17;25.02;;;;;;;17.33;97.08;101178.97;5098118;28;20468;-88
2022/08/19 02:35:45;;;;;;;30.23;26.00;;;;;;;17.26;96.95;101170.47;5103295;28;20019;-87
2022/08/19 02:38:26;;;;;;;30.48;25.15;;;;;;;17.24;96.61;101180.50;5097522;28;20028;-87
2022/08/19 02:40:54;;;;;;;32.47;25.92;;;;;;;17.16;97.45;101174.84;5096244;28;20062;-87
2022/08/19 02:43:20;;;;;;;34.25;26.95;;;;;;;17.17;96.90;101176.53;5110720;28;20024;-87
2022/08/19 02:45:48;;;;;;;33.75;27.90;;;;;;;17.10;96.87;101181.53;5102920;27;20224;-87
2022/08/19 02:48:15;;;;;;;37.28;28.15;;;;;;;17.13;96.61;101188.50;5112088;28;20020;-88
2022/08/19 02:50:40;;;;;;;32.15;26.45;;;;;;;17.09;95.80;101177.09;5094596;28;20035;-89
2022/08/19 02:53:08;;;;;;;33.50;26.75;;;;;;;17.04;96.19;101171.19;5091033;28;20072;-88
2022/08/19 02:55:33;;;;;;;34.28;26.58;;;;;;;17.09;96.35;101184.31;5096720;28;20024;-87
2022/08/19 02:57:59;;;;;;;33.08;26.25;;;;;;;17.09;95.96;101182.47;5095137;28;20039;-87
2022/08/19 03:00:26;;;;;;;34.90;27.80;;;;;;;17.06;96.19;101184.56;5095037;28;20028;-87
2022/08/19 03:02:51;;;;;;;37.25;30.38;;;;;;;16.99;96.18;101164.44;5100426;28;20475;-87
2022/08/19 03:05:17;;;;;;;40.92;31.63;;;;;;;16.97;96.38;101167.25;5102818;28;20024;-87
2022/08/19 03:07:42;;;;;;;42.25;33.22;;;;;;;17.01;96.31;101174.09;5093647;28;20502;-86
2022/08/19 03:10:07;;;;;;;42.67;32.85;;;;;;;16.99;96.54;101169.81;5091504;28;20024;-86
2022/08/19 03:12:37;;;;;;;40.55;32.33;;;;;;;17.01;96.48;101181.31;5097025;28;20443;-87
2022/08/19 03:15:05;;;;;;;40.72;32.85;;;;;;;16.96;95.73;101180.78;5106422;28;20079;-88
2022/08/19 03:17:31;;;;;;;45.17;35.63;;;;;;;16.97;96.70;101179.81;5094835;28;20075;-88
2022/08/19 03:19:56;;;;;;;46.95;36.53;;;;;;;16.95;96.46;101184.47;5100592;28;20465;-87
2022/08/19 03:22:26;;;;;;;48.75;38.03;;;;;;;16.91;96.67;101173.06;5100649;28;20035;-88
2022/08/19 03:24:53;;;;;;;48.10;38.35;;;;;;;16.92;96.62;101164.03;5107097;28;20059;-86
2022/08/19 03:27:18;;;;;;;51.67;39.97;;;;;;;16.86;97.04;101169.84;5108003;28;20606;-88
2022/08/19 03:29:44;;;;;;;51.28;41.10;;;;;;;16.87;97.11;101179.63;5103330;28;20168;-88
2022/08/19 03:32:10;;;;;;;53.13;42.58;;;;;;;16.91;97.83;101186.50;5103986;28;20031;-88
2022/08/19 03:34:37;;;;;;;55.67;43.67;;;;;;;16.83;97.94;101176.31;5110129;28;20031;-90
2022/08/19 03:37:08;;;;;;;55.45;42.92;;;;;;;16.83;97.86;101173.63;5105417;28;20027;-88
2022/08/19 03:39:35;;;;;;;56.70;43.75;;;;;;;16.89;98.06;101183.94;5098387;28;20546;-88
2022/08/19 03:42:02;;;;;;;57.33;45.38;;;;;;;16.85;98.05;101178.91;5099599;28;20098;-88
2022/08/19 03:44:28;;;;;;;54.15;42.38;;;;;;;16.85;97.99;101173.53;5090398;28;20032;-87
2022/08/19 03:46:56;;;;;;;55.97;44.78;;;;;;;16.84;98.42;101180.69;5107083;28;20071;-87
2022/08/19 03:49:24;;;;;;;56.65;45.00;;;;;;;16.82;98.71;101176.41;5099624;28;20069;-87
2022/08/19 03:51:50;;;;;;;57.38;45.03;;;;;;;16.80;98.42;101176.50;5105412;28;20430;-86
2022/08/19 03:54:19;;;;;;;57.03;45.45;;;;;;;16.79;98.60;101169.44;5103211;28;20023;-88
2022/08/19 03:56:47;;;;;;;56.78;45.75;;;;;;;16.79;98.53;101172.13;5104326;28;20050;-87
2022/08/19 03:59:15;;;;;;;58.05;44.50;;;;;;;16.79;98.67;101174.81;5100973;28;20085;-87
2022/08/19 04:01:41;;;;;;;58.95;44.95;;;;;;;16.73;98.68;101172.56;5100992;28;20024;-87
2022/08/19 04:04:06;;;;;;;54.05;44.58;;;;;;;16.76;98.40;101183.09;5099958;28;20028;-88
2022/08/19 04:06:34;;;;;;;58.67;45.22;;;;;;;16.78;98.82;101183.00;5103875;28;20024;-87
2022/08/19 04:09:03;;;;;;;60.20;46.03;;;;;;;16.76;98.69;101188.47;5091690;28;20056;-86
2022/08/19 04:11:33;;;;;;;56.28;44.83;;;;;;;16.75;98.19;101185.88;5096084;28;20023;-87
2022/08/19 04:14:00;;;;;;;62.45;46.13;;;;;;;16.63;98.35;101169.63;5100573;28;20028;-88
2022/08/19 04:16:29;;;;;;;64.20;46.03;;;;;;;16.69;98.19;101174.56;5097433;28;20051;-88
2022/08/19 04:18:56;;;;;;;64.28;46.05;;;;;;;16.64;98.18;101159.75;5095412;28;20070;-87
2022/08/19 04:21:24;;;;;;;63.65;44.38;;;;;;;16.69;98.64;101173.72;5101646;28;20031;-87
2022/08/19 04:23:50;;;;;;;63.80;43.47;;;;;;;16.68;97.96;101172.88;5100956;28;20123;-87
2022/08/19 04:26:36;;;;;;;68.20;44.85;;;;;;;16.69;98.05;101166.50;5107627;28;20034;-88
2022/08/19 04:29:06;;;;;;;62.42;43.72;;;;;;;16.69;97.93;101176.41;5095622;28;20035;-86
2022/08/19 04:31:35;;;;;;;67.90;44.92;;;;;;;16.67;98.21;101171.13;5106384;28;20446;-87
2022/08/19 04:34:04;;;;;;;64.30;43.97;;;;;;;16.63;98.23;101168.75;5091422;28;20035;-87
2022/08/19 04:36:31;;;;;;;64.88;43.63;;;;;;;16.61;97.73;101160.81;5093965;28;20052;-87
2022/08/19 04:39:01;;;;;;;62.08;42.45;;;;;;;16.57;98.20;101163.84;5090552;28;20058;-87
2022/08/19 04:44:12;;;;;;;63.63;43.45;;;;;;;16.57;97.85;101169.22;5108926;28;20498;-88
2022/08/19 04:46:37;;;;;;;64.38;43.03;;;;;;;16.53;98.03;101162.34;5111522;28;20058;-87
2022/08/19 04:49:05;;;;;;;63.70;43.70;;;;;;;16.54;98.30;101166.75;5109096;28;20032;-88
2022/08/19 04:51:31;;;;;;;60.85;42.78;;;;;;;16.52;97.95;101155.25;5094060;28;20301;-87
2022/08/19 04:53:59;;;;;;;68.50;44.85;;;;;;;16.58;97.76;101170.94;5095483;28;20039;-88
2022/08/19 04:56:26;;;;;;;65.32;43.45;;;;;;;16.56;97.83;101171.03;5092557;28;20031;-88
2022/08/19 04:58:52;;;;;;;63.85;43.40;;;;;;;16.53;98.32;101176.63;5090613;28;20032;-87
2022/08/19 05:01:28;;;;;;;68.80;42.55;;;;;;;16.55;98.14;101181.88;5105813;28;20043;-88
2022/08/19 05:03:54;;;;;;;63.53;42.25;;;;;;;16.56;97.53;101184.47;5096355;28;21556;-88
2022/08/19 05:06:21;;;;;;;68.93;44.30;;;;;;;16.56;97.54;101187.16;5115350;28;20042;-88
2022/08/19 05:08:47;;;;;;;69.15;44.65;;;;;;;16.59;97.20;101197.69;5120472;28;20024;-87
2022/08/19 05:11:16;;;;;;;73.18;46.75;;;;;;;16.60;97.80;101202.09;5111318;28;20380;-88
2022/08/19 05:13:43;;;;;;;74.78;47.67;;;;;;;16.60;97.83;101202.09;5101910;28;20070;-88
2022/08/19 05:16:10;;;;;;;73.78;47.53;;;;;;;16.59;97.93;101200.38;5119263;28;20044;-89
2022/08/19 05:24:09;;;;;;;65.10;41.90;;;;;;;16.57;97.40;101207.69;5102395;28;20046;-88
2022/08/19 05:26:39;;;;;;;63.90;42.28;;;;;;;16.59;97.12;101213.81;5115928;28;20105;-91
2022/08/19 05:29:04;;;;;;;71.68;46.40;;;;;;;16.62;97.74;101220.81;5113633;28;20027;-90
2022/08/19 05:31:31;;;;;;;69.30;46.80;;;;;;;16.64;97.50;101221.56;5106812;28;20081;-90
2022/08/19 05:33:58;;;;;;;68.95;47.78;;;;;;;16.67;97.58;101232.09;5098669;28;20316;-89
2022/08/19 05:36:24;;;;;;;73.70;47.97;;;;;;;16.67;97.54;101234.78;5100584;28;20020;-91
2022/08/19 05:38:51;;;;;;;73.85;47.05;;;;;;;16.75;97.45;101229.75;5102540;28;20032;-89
2022/08/19 05:41:16;;;;;;;70.60;47.13;;;;;;;16.83;97.31;101235.44;5124187;28;20054;-90
2022/08/19 05:43:42;;;;;;;72.30;47.83;;;;;;;16.82;96.82;101214.06;5112889;28;20024;-91
2022/08/19 05:46:08;;;;;;;69.90;47.50;;;;;;;16.97;95.72;101231.78;5123998;28;20068;-91
2022/08/19 05:48:35;;;;;;;66.85;45.20;;;;;;;17.06;95.73;101235.66;5122775;28;20020;-91
2022/08/19 05:51:08;;;;;;;66.80;41.67;;;;;;;17.16;94.40;101236.69;5117027;28;20024;-91
2022/08/19 05:53:34;;;;;;;66.78;44.63;;;;;;;17.15;94.20;101226.91;5106260;28;20024;-91
2022/08/19 05:56:08;;;;;;;65.80;42.72;;;;;;;17.25;93.97;101236.03;5113105;28;20028;-93
2022/08/19 05:58:35;;;;;;;62.70;41.85;;;;;;;17.19;92.62;101220.34;5101032;28;20062;-91
2022/08/19 06:01:04;;;;;;;66.68;42.25;;;;;;;17.18;92.82;101218.63;5106463;28;20088;-91
2022/08/19 06:03:30;;;;;;;59.33;40.45;;;;;;;17.36;91.79;101233.41;5100633;28;20433;-91
2022/08/19 06:05:56;;;;;;;68.57;41.58;;;;;;;17.46;92.38;101227.34;5110705;28;20023;-91
2022/08/19 06:08:21;;;;;;;63.75;40.88;;;;;;;17.50;91.64;101224.31;5114092;27;20511;-91
2022/08/19 06:10:46;;;;;;;62.63;41.42;;;;;;;17.63;91.38;101221.56;5109827;28;20487;-91
2022/08/19 06:13:11;;;;;;;59.40;39.88;;;;;;;17.74;90.54;101215.41;5111300;28;20031;-92
2022/08/19 06:15:43;;;;;;;66.63;43.85;;;;;;;17.86;89.98;101225.28;5096547;28;20094;-90
2022/08/19 06:18:08;;;;;;;60.28;39.75;;;;;;;17.88;88.85;101223.31;5103077;28;20111;-91
2022/08/19 06:20:34;;;;;;;55.38;37.38;;;;;;;17.87;88.74;101222.47;5097169;28;20094;-91
2022/08/19 06:22:59;;;;;;;60.17;39.67;;;;;;;18.04;88.70;101221.19;5111282;28;20034;-92
2022/08/19 06:25:24;;;;;;;58.88;39.80;;;;;;;18.13;87.89;101223.16;5107133;28;20036;-90
2022/08/19 06:27:50;;;;;;;58.25;37.88;;;;;;;18.27;87.57;101221.28;5104862;28;20028;-90
2022/08/19 06:30:15;;;;;;;57.53;36.90;;;;;;;18.39;86.00;101217.59;5104941;28;20485;-91
2022/08/19 06:32:41;;;;;;;58.35;37.55;;;;;;;18.58;86.06;101222.44;5095908;28;20055;-90
2022/08/19 06:35:07;;;;;;;52.10;34.60;;;;;;;18.72;84.32;101214.13;5108648;28;20024;-90
2022/08/19 06:37:32;;;;;;;55.58;36.10;;;;;;;18.81;83.62;101199.94;5090597;28;20036;-90
2022/08/19 06:39:58;;;;;;;56.10;36.70;;;;;;;19.08;82.52;101220.28;5106039;28;20031;-88
2022/08/19 06:42:23;;;;;;;50.45;34.03;;;;;;;19.07;81.74;101211.31;5096610;28;20020;-91
2022/08/19 06:44:49;;;;;;;52.40;34.20;;;;;;;19.09;82.04;101209.34;5097418;28;20027;-91
2022/08/19 06:47:17;;;;;;;51.63;34.33;;;;;;;19.22;82.30;101225.41;5092243;28;20024;-91
2022/08/19 06:49:43;;;;;;;57.92;35.05;;;;;;;19.20;82.39;101224.69;5093876;28;20050;-93
2022/08/19 06:52:11;;;;;;;52.10;33.78;;;;;;;19.35;82.54;101212.66;5100279;28;20039;-91
2022/08/19 06:54:37;;;;;;;51.47;32.97;;;;;;;19.53;81.04;101209.41;5105203;28;20080;-92
2022/08/19 06:57:03;;;;;;;44.60;30.55;;;;;;;19.71;79.89;101216.00;5105730;28;20475;-90
2022/08/19 06:59:32;;;;;;;46.33;31.65;;;;;;;19.73;79.91;101197.84;5111133;28;20263;-91
2022/08/19 07:02:00;;;;;;;50.25;32.45;;;;;;;20.03;79.79;101221.41;5100706;28;20434;-91
2022/08/19 07:04:28;;;;;;;48.90;31.70;;;;;;;20.25;78.77;101196.09;5103410;28;20470;-91
2022/08/19 07:06:59;;;;;;;44.22;29.45;;;;;;;20.58;76.11;101195.06;5092814;28;20050;-91
2022/08/19 07:09:26;;;;;;;44.00;29.17;;;;;;;20.84;75.38;101218.94;5094848;28;20071;-91
2022/08/19 07:11:53;;;;;;;48.20;32.58;;;;;;;20.92;75.00;101215.56;5094744;28;20020;-91
2022/08/19 07:14:22;;;;;;;47.67;32.83;;;;;;;21.01;74.97;101221.03;5091745;28;20024;-92
2022/08/19 07:16:49;;;;;;;43.42;30.17;;;;;;;20.91;73.89;101216.56;5106350;28;20043;-91
2022/08/19 07:19:16;;;;;;;43.75;30.33;;;;;;;21.07;74.59;101223.19;5093434;28;20078;-89
2022/08/19 07:21:42;;;;;;;41.28;26.90;;;;;;;21.20;72.32;101228.38;5101674;28;20055;-89
2022/08/19 07:24:08;;;;;;;43.08;27.90;;;;;;;21.20;72.98;101235.63;5100213;28;20028;-89
2022/08/19 07:26:38;;;;;;;42.72;27.88;;;;;;;21.56;72.97;101240.44;5098666;28;20024;-90
2022/08/19 07:29:05;;;;;;;41.30;28.77;;;;;;;21.76;71.97;101240.47;5107456;28;20078;-91
2022/08/19 07:31:33;;;;;;;41.67;29.20;;;;;;;21.87;70.95;101241.22;5106339;28;20035;-91
2022/08/19 07:33:58;;;;;;;41.15;28.77;;;;;;;21.91;70.25;101239.09;5101305;28;20023;-91
2022/08/19 07:36:31;;;;;;;42.90;28.95;;;;;;;21.99;69.93;101236.53;5110613;28;20027;-91
2022/08/19 07:38:59;;;;;;;40.15;28.00;;;;;;;22.37;70.43;101235.66;5110681;28;20050;-92
2022/08/19 07:41:28;;;;;;;38.03;28.60;;;;;;;22.58;68.00;101242.78;5096356;28;20477;-90
2022/08/19 07:43:54;;;;;;;47.45;27.73;;;;;;;23.04;69.06;101251.94;5101114;28;20024;-88
2022/08/19 07:46:20;;;;;;;43.78;28.48;;;;;;;23.79;64.66;101249.97;5093889;28;20080;-90
2022/08/19 07:48:47;;;;;;;39.22;27.75;;;;;;;23.76;63.96;101247.56;5100212;28;20039;-90
2022/08/19 07:51:17;;;;;;;44.33;27.50;;;;;;;23.64;64.21;101255.03;5100069;28;20055;-90
2022/08/19 07:53:44;;;;;;;44.00;30.45;;;;;;;23.99;62.73;101253.38;5096343;28;20035;-92
2022/08/19 07:56:11;;;;;;;40.67;27.50;;;;;;;24.41;61.42;101253.59;5100691;28;20044;-90
2022/08/19 07:58:39;;;;;;;41.15;26.85;;;;;;;24.53;61.46;101265.09;5105091;28;20057;-90
2022/08/19 08:01:06;;;;;;;38.20;26.88;;;;;;;24.33;61.27;101240.78;5100939;28;20035;-91
2022/08/19 08:09:21;;;;;;;32.13;24.40;;;;;;;25.16;58.95;101259.38;5099618;28;20141;-92
2022/08/19 08:11:51;;;;;;;34.15;26.48;;;;;;;24.80;59.48;101254.06;5095763;28;20077;-90
2022/08/19 08:14:32;;;;;;;31.25;24.50;;;;;;;24.97;59.19;101263.19;5099181;28;20031;-91
2022/08/19 08:16:58;;;;;;;33.67;25.45;;;;;;;25.57;56.19;101268.56;5109310;28;20031;-93
2022/08/19 08:19:25;;;;;;;34.53;26.67;;;;;;;25.91;54.85;101278.56;5095162;28;20079;-91
2022/08/19 08:21:52;;;;;;;34.53;27.25;;;;;;;25.26;55.95;101279.19;5099424;28;20028;-92
2022/08/19 08:24:18;;;;;;;36.10;27.98;;;;;;;24.97;58.11;101278.69;5105118;28;20176;-92
2022/08/19 08:26:44;;;;;;;33.13;26.52;;;;;;;24.91;57.89;101265.69;5100421;28;20085;-92
2022/08/19 08:29:12;;;;;;;31.73;26.00;;;;;;;25.01;57.96;101274.63;5111344;28;20065;-93
2022/08/19 08:31:39;;;;;;;35.50;27.23;;;;;;;24.80;58.03;101285.88;5097610;28;20539;-91
2022/08/19 08:34:05;;;;;;;29.48;25.90;;;;;;;24.55;58.22;101271.25;5102716;28;20104;-92
2022/08/19 08:36:33;;;;;;;32.53;27.88;;;;;;;24.68;58.36;101279.84;5103329;28;20066;-92
2022/08/19 08:38:58;;;;;;;34.33;26.80;;;;;;;26.02;54.93;101297.34;5101700;28;20118;-89
2022/08/19 08:41:36;;;;;;;35.63;28.27;;;;;;;26.91;52.24;101308.47;5098972;28;20457;-90
2022/08/19 08:44:04;;;;;;;34.13;28.45;;;;;;;28.26;50.24;101311.00;5099812;28;20031;-91
2022/08/19 08:46:42;;;;;;;32.45;25.80;;;;;;;29.35;50.32;101297.81;5096446;28;20047;-89
2022/08/19 08:49:13;;;;;;;28.90;24.42;;;;;;;29.78;44.54;101301.56;5098009;28;20028;-90
2022/08/19 08:51:44;;;;;;;31.85;26.45;;;;;;;28.89;44.65;101291.66;5107190;28;20120;-90
2022/08/19 08:54:13;;;;;;;29.65;26.35;;;;;;;28.10;46.91;101288.38;5106256;28;20111;-87
2022/08/19 08:56:41;;;;;;;32.13;28.20;;;;;;;27.87;47.25;101291.06;5092486;28;20039;-92
2022/08/19 08:59:16;;;;;;;31.25;26.05;;;;;;;27.64;48.43;101269.97;5094384;28;20026;-91
2022/08/19 09:01:42;;;;;;;32.25;26.45;;;;;;;28.04;45.82;101282.56;5095635;28;20058;-92
2022/08/19 09:04:07;;;;;;;32.42;26.33;;;;;;;28.21;47.18;101280.56;5092295;28;20024;-93
2022/08/19 09:06:55;;;;;;;31.42;28.02;;;;;;;28.42;45.47;101299.06;5093590;28;20092;-91
2022/08/19 09:09:34;;;;;;;30.23;26.92;;;;;;;27.74;48.68;101297.97;5094829;28;20785;-90
2022/08/19 09:12:49;;;;;;;32.83;26.58;;;;;;;27.88;48.34;101293.63;5103390;28;20389;-91
2022/08/19 09:15:18;;;;;;;33.17;29.65;;;;;;;29.26;43.56;101296.19;5076053;28;20056;-91
2022/08/19 09:17:44;;;;;;;29.42;26.25;;;;;;;30.74;42.07;101290.31;5101744;28;20038;-90
2022/08/19 09:20:10;;;;;;;26.70;23.98;;;;;;;31.97;38.22;101291.38;5095679;28;20131;-90
2022/08/19 09:22:37;;;;;;;24.10;21.55;;;;;;;32.30;37.64;101304.38;5099897;28;20088;-88
2022/08/19 09:25:04;;;;;;;26.60;22.83;;;;;;;32.07;37.60;101291.00;5106665;28;20084;-90
2022/08/19 09:27:31;;;;;;;22.98;20.58;;;;;;;31.58;38.00;101303.94;5111153;28;20032;-89
2022/08/19 09:29:56;;;;;;;24.42;22.00;;;;;;;30.95;39.14;101319.63;5116774;28;20019;-93
2022/08/19 09:32:22;;;;;;;23.23;20.02;;;;;;;29.91;40.99;101311.00;5108199;28;20020;-88
2022/08/19 09:34:48;;;;;;;21.42;19.10;;;;;;;28.94;43.46;101311.94;5112793;28;20036;-88
2022/08/19 09:37:14;;;;;;;22.67;18.88;;;;;;;30.31;41.19;101308.69;5113164;28;20027;-87
2022/08/19 09:39:43;;;;;;;23.48;18.98;;;;;;;30.92;40.49;101322.75;5117235;28;20057;-88
2022/08/19 09:42:13;;;;;;;25.77;21.77;;;;;;;30.00;41.72;101318.91;5117019;28;20057;-95
2022/08/19 09:44:40;;;;;;;25.52;21.42;;;;;;;29.08;43.08;101301.22;5109703;28;20039;-95
2022/08/19 09:47:06;;;;;;;25.27;21.48;;;;;;;28.09;46.13;101324.94;5117645;28;20103;-94
2022/08/19 09:49:33;;;;;;;24.20;20.67;;;;;;;27.06;47.89;101317.66;5108674;28;20074;-96
2022/08/19 09:51:59;;;;;;;20.92;18.70;;;;;;;26.46;49.44;101320.78;5111093;28;20042;-95
2022/08/19 09:54:25;;;;;;;24.45;19.30;;;;;;;26.00;51.55;101325.81;5116805;28;20423;-96
2022/08/19 09:56:51;;;;;;;22.65;19.30;;;;;;;25.51;52.03;101321.03;5105580;28;20028;-94
2022/08/19 09:59:16;;;;;;;24.27;18.98;;;;;;;25.06;53.28;101313.97;5100548;28;20033;-95
2022/08/19 10:01:42;;;;;;;24.55;18.38;;;;;;;24.72;54.96;101326.66;5105989;28;20028;-94
2022/08/19 10:04:10;;;;;;;21.10;18.25;;;;;;;24.48;55.68;101324.59;5100060;28;20012;-95
2022/08/19 10:06:39;;;;;;;24.45;18.20;;;;;;;24.39;56.33;101328.25;5102631;28;20084;-95
2022/08/19 10:09:07;;;;;;;22.63;17.90;;;;;;;24.34;56.64;101318.66;5109925;28;20020;-94
2022/08/19 10:11:34;;;;;;;21.38;18.02;;;;;;;24.22;56.52;101309.03;5106625;28;20059;-94
2022/08/19 10:14:00;;;;;;;26.73;19.40;;;;;;;23.94;57.05;101299.22;5111788;28;20031;-94
2022/08/19 10:16:26;;;;;;;25.95;19.65;;;;;;;24.03;57.51;101331.78;5107712;28;20032;-94
2022/08/19 10:18:52;;;;;;;27.67;18.55;;;;;;;23.88;57.93;101316.16;5099394;28;20038;-93
2022/08/19 10:21:19;;;;;;;23.48;18.23;;;;;;;23.67;58.84;101330.88;5104040;28;20028;-92
2022/08/19 10:23:52;;;;;;;22.63;17.42;;;;;;;23.54;59.68;101327.63;5099852;28;20111;-92
2022/08/19 10:26:29;;;;;;;23.75;17.55;;;;;;;23.48;59.59;101334.50;5100386;28;20047;-91
2022/08/19 10:28:56;;;;;;;22.95;18.13;;;;;;;23.47;60.46;101331.94;5104990;28;20386;-92
2022/08/19 10:31:25;;;;;;;23.38;17.50;;;;;;;23.81;59.38;101322.19;5103949;28;20108;-95
2022/08/19 10:33:57;;;;;;;23.30;16.88;;;;;;;24.37;57.92;101333.84;5104556;28;20477;-89
2022/08/19 10:36:26;;;;;;;25.20;17.23;;;;;;;25.12;56.33;101327.97;5107351;28;20093;-91
2022/08/19 10:38:58;;;;;;;19.73;14.98;;;;;;;25.59;54.36;101317.50;5103315;28;20031;-94
2022/08/19 10:41:26;;;;;;;23.65;15.77;;;;;;;25.60;53.90;101319.19;5109113;28;20092;-96
2022/08/19 10:43:57;;;;;;;20.70;15.25;;;;;;;25.75;54.14;101322.13;5110064;28;20024;-92
2022/08/19 10:46:25;;;;;;;19.10;14.70;;;;;;;25.78;53.15;101321.84;5108418;28;20062;-92
2022/08/19 10:48:54;;;;;;;20.77;14.52;;;;;;;25.71;52.25;101308.00;5110052;28;20034;-93
2022/08/19 10:54:05;;;;;;;19.60;14.00;;;;;;;25.62;53.45;101299.94;5095688;28;20030;-89
2022/08/19 10:56:50;;;;;;;19.98;14.63;;;;;;;25.78;53.50;101314.50;5104080;28;20027;-90
2022/08/19 10:59:18;;;;;;;20.83;15.88;;;;;;;25.67;53.52;101317.53;5101723;28;20481;-90
2022/08/19 11:01:45;;;;;;;21.50;15.60;;;;;;;25.96;53.28;101303.50;5097806;28;20149;-91
2022/08/19 11:04:13;;;;;;;20.98;15.85;;;;;;;26.35;51.45;101318.38;5106282;28;20031;-90
2022/08/19 11:06:40;;;;;;;19.80;16.40;;;;;;;26.55;51.51;101317.06;5099438;27;20087;-89
2022/08/19 11:09:07;;;;;;;18.90;14.93;;;;;;;27.05;50.76;101313.25;5095555;28;20571;-90
2022/08/19 11:11:39;;;;;;;23.23;16.20;;;;;;;27.47;48.95;101312.97;5105576;28;20088;-89
2022/08/19 11:14:05;;;;;;;27.05;20.17;;;;;;;27.83;47.39;101306.97;5110039;28;20118;-90
2022/08/19 11:16:31;;;;;;;29.35;20.90;;;;;;;28.82;45.25;101307.97;5104653;28;20124;-91
2022/08/19 11:18:58;;;;;;;29.33;19.98;;;;;;;30.11;42.04;101313.97;5093028;28;20066;-89
2022/08/19 11:21:31;;;;;;;24.00;18.98;;;;;;;29.70;42.55;101320.88;5108633;28;20019;-89
2022/08/19 11:23:59;;;;;;;29.38;23.42;;;;;;;29.31;43.66;101323.06;5111442;28;20027;-91
2022/08/19 11:26:25;;;;;;;25.75;19.98;;;;;;;29.88;41.28;101303.97;5106945;28;20024;-90
2022/08/19 11:28:53;;;;;;;22.70;19.15;;;;;;;30.36;40.79;101312.56;5111992;28;20057;-90